sensor_id;sensor_type;location;lat;lon;timestamp;P1;durP1;ratioP1;P2;durP2;ratioP2
31674;SDS011;18276;45.520;11.018;2022-09-09T00:02:18;4.72;;;2.67;;
31674;SDS011;18276;45.520;11.018;2022-09-09T00:05:00;7.28;;;2.50;;
31674;SDS011;18276;45.520;11.018;2022-09-09T00:18:39;10.93;;;3.00;;
31674;SDS011;18276;45.520;11.018;2022-09-09T00:21:08;9.40;;;3.05;;
31674;SDS011;18276;45.520;11.018;2022-09-09T00:23:45;7.65;;;2.72;;
31674;SDS011;18276;45.520;11.018;2022-09-09T00:32:00;9.55;;;2.60;;
31674;SDS011;18276;45.520;11.018;2022-09-09T00:34:46;9.45;;;2.72;;
31674;SDS011;18276;45.520;11.018;2022-09-09T00:37:16;5.88;;;2.65;;
31674;SDS011;18276;45.520;11.018;2022-09-09T00:39:47;5.25;;;2.70;;
31674;SDS011;18276;45.520;11.018;2022-09-09T00:42:17;7.28;;;2.33;;
31674;SDS011;18276;45.520;11.018;2022-09-09T00:47:43;13.73;;;3.63;;
31674;SDS011;18276;45.520;11.018;2022-09-09T00:50:25;8.65;;;3.00;;
31674;SDS011;18276;45.520;11.018;2022-09-09T01:01:26;7.68;;;2.70;;
31674;SDS011;18276;45.520;11.018;2022-09-09T01:03:54;14.65;;;3.80;;
31674;SDS011;18276;45.520;11.018;2022-09-09T01:06:25;5.50;;;2.90;;
31674;SDS011;18276;45.520;11.018;2022-09-09T01:11:33;16.63;;;3.30;;
31674;SDS011;18276;45.520;11.018;2022-09-09T01:26:24;5.57;;;3.05;;
31674;SDS011;18276;45.520;11.018;2022-09-09T01:29:09;3.75;;;2.67;;
31674;SDS011;18276;45.520;11.018;2022-09-09T01:31:57;9.70;;;2.90;;
31674;SDS011;18276;45.520;11.018;2022-09-09T01:34:36;7.45;;;3.00;;
31674;SDS011;18276;45.520;11.018;2022-09-09T01:37:07;5.97;;;2.60;;
31674;SDS011;18276;45.520;11.018;2022-09-09T01:39:37;9.45;;;3.10;;
31674;SDS011;18276;45.520;11.018;2022-09-09T01:42:09;7.75;;;2.63;;
31674;SDS011;18276;45.520;11.018;2022-09-09T01:44:41;6.65;;;3.08;;
31674;SDS011;18276;45.520;11.018;2022-09-09T01:47:08;8.45;;;2.60;;
31674;SDS011;18276;45.520;11.018;2022-09-09T01:49:51;9.50;;;2.70;;
31674;SDS011;18276;45.520;11.018;2022-09-09T01:52:22;9.63;;;3.47;;
31674;SDS011;18276;45.520;11.018;2022-09-09T01:54:50;5.05;;;2.75;;
31674;SDS011;18276;45.520;11.018;2022-09-09T01:57:25;9.13;;;3.03;;
31674;SDS011;18276;45.520;11.018;2022-09-09T02:00:00;8.40;;;2.85;;
31674;SDS011;18276;45.520;11.018;2022-09-09T02:05:36;5.18;;;3.13;;
31674;SDS011;18276;45.520;11.018;2022-09-09T02:08:19;7.78;;;3.78;;
31674;SDS011;18276;45.520;11.018;2022-09-09T02:11:01;8.93;;;3.30;;
31674;SDS011;18276;45.520;11.018;2022-09-09T02:13:37;9.25;;;2.97;;
31674;SDS011;18276;45.520;11.018;2022-09-09T02:16:18;6.47;;;2.95;;
31674;SDS011;18276;45.520;11.018;2022-09-09T02:19:06;7.25;;;2.83;;
31674;SDS011;18276;45.520;11.018;2022-09-09T02:22:11;12.40;;;3.22;;
31674;SDS011;18276;45.520;11.018;2022-09-09T02:24:39;7.50;;;2.80;;
31674;SDS011;18276;45.520;11.018;2022-09-09T02:27:13;9.60;;;3.00;;
31674;SDS011;18276;45.520;11.018;2022-09-09T02:29:43;7.38;;;3.40;;
31674;SDS011;18276;45.520;11.018;2022-09-09T02:32:17;7.40;;;3.40;;
31674;SDS011;18276;45.520;11.018;2022-09-09T02:34:49;6.75;;;3.00;;
31674;SDS011;18276;45.520;11.018;2022-09-09T02:37:21;5.53;;;3.28;;
31674;SDS011;18276;45.520;11.018;2022-09-09T02:39:55;12.38;;;3.63;;
31674;SDS011;18276;45.520;11.018;2022-09-09T02:42:23;11.00;;;3.50;;
31674;SDS011;18276;45.520;11.018;2022-09-09T02:44:53;7.65;;;3.28;;
31674;SDS011;18276;45.520;11.018;2022-09-09T02:50:23;11.05;;;3.05;;
31674;SDS011;18276;45.520;11.018;2022-09-09T02:53:18;7.18;;;2.80;;
31674;SDS011;18276;45.520;11.018;2022-09-09T02:55:52;11.43;;;3.50;;
31674;SDS011;18276;45.520;11.018;2022-09-09T02:58:22;13.68;;;3.33;;
31674;SDS011;18276;45.520;11.018;2022-09-09T03:00:58;9.30;;;3.42;;
31674;SDS011;18276;45.520;11.018;2022-09-09T03:03:28;9.52;;;3.85;;
31674;SDS011;18276;45.520;11.018;2022-09-09T03:05:58;10.93;;;3.10;;
31674;SDS011;18276;45.520;11.018;2022-09-09T03:08:26;7.60;;;2.90;;
31674;SDS011;18276;45.520;11.018;2022-09-09T03:10:57;8.88;;;3.38;;
31674;SDS011;18276;45.520;11.018;2022-09-09T03:13:30;9.48;;;3.15;;
31674;SDS011;18276;45.520;11.018;2022-09-09T03:15:57;6.82;;;3.30;;
31674;SDS011;18276;45.520;11.018;2022-09-09T03:18:26;13.35;;;3.90;;
31674;SDS011;18276;45.520;11.018;2022-09-09T03:20:54;9.65;;;3.83;;
31674;SDS011;18276;45.520;11.018;2022-09-09T03:23:21;7.25;;;3.42;;
31674;SDS011;18276;45.520;11.018;2022-09-09T03:25:49;8.73;;;3.45;;
31674;SDS011;18276;45.520;11.018;2022-09-09T03:28:27;11.02;;;3.08;;
31674;SDS011;18276;45.520;11.018;2022-09-09T03:31:03;11.23;;;3.45;;
31674;SDS011;18276;45.520;11.018;2022-09-09T03:33:39;9.43;;;3.20;;
31674;SDS011;18276;45.520;11.018;2022-09-09T03:36:10;10.75;;;3.30;;
31674;SDS011;18276;45.520;11.018;2022-09-09T03:38:37;12.52;;;3.70;;
31674;SDS011;18276;45.520;11.018;2022-09-09T03:41:05;6.60;;;3.15;;
31674;SDS011;18276;45.520;11.018;2022-09-09T03:43:32;6.25;;;3.50;;
31674;SDS011;18276;45.520;11.018;2022-09-09T03:46:00;12.57;;;4.22;;
31674;SDS011;18276;45.520;11.018;2022-09-09T03:48:28;9.98;;;3.30;;
31674;SDS011;18276;45.520;11.018;2022-09-09T03:50:56;7.68;;;3.65;;
31674;SDS011;18276;45.520;11.018;2022-09-09T03:53:28;7.30;;;3.67;;
31674;SDS011;18276;45.520;11.018;2022-09-09T03:55:56;7.45;;;4.00;;
31674;SDS011;18276;45.520;11.018;2022-09-09T03:58:27;9.38;;;3.95;;
31674;SDS011;18276;45.520;11.018;2022-09-09T04:03:32;7.85;;;3.47;;
31674;SDS011;18276;45.520;11.018;2022-09-09T04:06:00;8.60;;;4.18;;
31674;SDS011;18276;45.520;11.018;2022-09-09T04:08:30;6.80;;;3.90;;
31674;SDS011;18276;45.520;11.018;2022-09-09T04:10:59;9.60;;;4.30;;
31674;SDS011;18276;45.520;11.018;2022-09-09T04:16:01;7.95;;;3.53;;
31674;SDS011;18276;45.520;11.018;2022-09-09T04:18:31;13.30;;;4.35;;
31674;SDS011;18276;45.520;11.018;2022-09-09T04:20:59;15.48;;;4.20;;
31674;SDS011;18276;45.520;11.018;2022-09-09T04:23:28;9.23;;;3.97;;
31674;SDS011;18276;45.520;11.018;2022-09-09T04:25:57;13.93;;;4.57;;
31674;SDS011;18276;45.520;11.018;2022-09-09T04:28:27;12.38;;;4.85;;
31674;SDS011;18276;45.520;11.018;2022-09-09T04:30:57;8.73;;;4.25;;
31674;SDS011;18276;45.520;11.018;2022-09-09T04:33:31;10.35;;;4.40;;
31674;SDS011;18276;45.520;11.018;2022-09-09T04:36:05;11.23;;;4.15;;
31674;SDS011;18276;45.520;11.018;2022-09-09T04:38:32;13.05;;;4.00;;
31674;SDS011;18276;45.520;11.018;2022-09-09T04:41:00;7.35;;;3.92;;
31674;SDS011;18276;45.520;11.018;2022-09-09T04:43:28;11.15;;;4.32;;
31674;SDS011;18276;45.520;11.018;2022-09-09T04:45:58;9.93;;;3.72;;
31674;SDS011;18276;45.520;11.018;2022-09-09T04:48:28;8.50;;;4.00;;
31674;SDS011;18276;45.520;11.018;2022-09-09T04:50:59;8.30;;;3.60;;
31674;SDS011;18276;45.520;11.018;2022-09-09T04:53:33;7.30;;;3.88;;
31674;SDS011;18276;45.520;11.018;2022-09-09T04:56:08;13.07;;;4.72;;
31674;SDS011;18276;45.520;11.018;2022-09-09T04:58:40;9.80;;;4.63;;
31674;SDS011;18276;45.520;11.018;2022-09-09T05:03:42;9.55;;;4.53;;
31674;SDS011;18276;45.520;11.018;2022-09-09T05:06:15;9.18;;;3.65;;
31674;SDS011;18276;45.520;11.018;2022-09-09T05:08:46;7.20;;;4.00;;
31674;SDS011;18276;45.520;11.018;2022-09-09T05:13:56;10.05;;;4.32;;
31674;SDS011;18276;45.520;11.018;2022-09-09T05:16:23;10.55;;;4.00;;
31674;SDS011;18276;45.520;11.018;2022-09-09T05:18:50;12.95;;;4.38;;
31674;SDS011;18276;45.520;11.018;2022-09-09T05:21:19;9.65;;;3.97;;
31674;SDS011;18276;45.520;11.018;2022-09-09T05:23:47;11.23;;;4.97;;
31674;SDS011;18276;45.520;11.018;2022-09-09T05:26:15;15.38;;;4.20;;
31674;SDS011;18276;45.520;11.018;2022-09-09T05:28:46;10.10;;;3.90;;
31674;SDS011;18276;45.520;11.018;2022-09-09T05:31:15;6.35;;;3.83;;
31674;SDS011;18276;45.520;11.018;2022-09-09T05:33:46;8.80;;;3.85;;
31674;SDS011;18276;45.520;11.018;2022-09-09T05:36:15;15.55;;;4.25;;
31674;SDS011;18276;45.520;11.018;2022-09-09T05:38:46;11.70;;;3.75;;
31674;SDS011;18276;45.520;11.018;2022-09-09T05:41:14;15.55;;;4.57;;
31674;SDS011;18276;45.520;11.018;2022-09-09T05:43:54;18.23;;;4.93;;
31674;SDS011;18276;45.520;11.018;2022-09-09T05:46:22;16.20;;;4.25;;
31674;SDS011;18276;45.520;11.018;2022-09-09T05:48:53;13.50;;;4.22;;
31674;SDS011;18276;45.520;11.018;2022-09-09T05:53:58;17.35;;;4.30;;
31674;SDS011;18276;45.520;11.018;2022-09-09T05:56:28;10.52;;;4.22;;
31674;SDS011;18276;45.520;11.018;2022-09-09T05:58:57;14.63;;;4.35;;
31674;SDS011;18276;45.520;11.018;2022-09-09T06:01:31;14.15;;;4.20;;
31674;SDS011;18276;45.520;11.018;2022-09-09T06:04:01;11.20;;;4.03;;
31674;SDS011;18276;45.520;11.018;2022-09-09T06:06:31;12.52;;;4.47;;
31674;SDS011;18276;45.520;11.018;2022-09-09T06:09:06;8.55;;;3.58;;
31674;SDS011;18276;45.520;11.018;2022-09-09T06:11:38;13.75;;;4.00;;
31674;SDS011;18276;45.520;11.018;2022-09-09T06:14:06;17.20;;;3.97;;
31674;SDS011;18276;45.520;11.018;2022-09-09T06:16:36;16.48;;;4.55;;
31674;SDS011;18276;45.520;11.018;2022-09-09T06:19:15;15.45;;;4.28;;
31674;SDS011;18276;45.520;11.018;2022-09-09T06:21:42;19.10;;;4.55;;
31674;SDS011;18276;45.520;11.018;2022-09-09T06:24:11;16.27;;;3.90;;
31674;SDS011;18276;45.520;11.018;2022-09-09T06:26:40;14.02;;;4.20;;
31674;SDS011;18276;45.520;11.018;2022-09-09T06:29:10;10.77;;;4.13;;
31674;SDS011;18276;45.520;11.018;2022-09-09T06:31:38;12.82;;;3.63;;
31674;SDS011;18276;45.520;11.018;2022-09-09T06:34:12;12.35;;;3.58;;
31674;SDS011;18276;45.520;11.018;2022-09-09T06:36:43;31.02;;;5.45;;
31674;SDS011;18276;45.520;11.018;2022-09-09T06:39:12;12.15;;;3.85;;
31674;SDS011;18276;45.520;11.018;2022-09-09T06:41:42;9.23;;;4.18;;
31674;SDS011;18276;45.520;11.018;2022-09-09T06:44:38;18.38;;;4.72;;
31674;SDS011;18276;45.520;11.018;2022-09-09T06:47:08;9.95;;;4.00;;
31674;SDS011;18276;45.520;11.018;2022-09-09T06:49:35;12.68;;;3.85;;
31674;SDS011;18276;45.520;11.018;2022-09-09T06:52:06;7.40;;;3.25;;
31674;SDS011;18276;45.520;11.018;2022-09-09T06:54:36;18.20;;;4.05;;
31674;SDS011;18276;45.520;11.018;2022-09-09T06:57:04;12.63;;;4.05;;
31674;SDS011;18276;45.520;11.018;2022-09-09T06:59:54;10.95;;;4.10;;
31674;SDS011;18276;45.520;11.018;2022-09-09T07:02:21;9.40;;;3.40;;
31674;SDS011;18276;45.520;11.018;2022-09-09T07:04:48;6.28;;;3.38;;
31674;SDS011;18276;45.520;11.018;2022-09-09T07:07:17;12.55;;;3.05;;
31674;SDS011;18276;45.520;11.018;2022-09-09T07:09:44;6.95;;;3.38;;
31674;SDS011;18276;45.520;11.018;2022-09-09T07:12:12;9.38;;;3.78;;
31674;SDS011;18276;45.520;11.018;2022-09-09T07:14:49;10.20;;;3.50;;
31674;SDS011;18276;45.520;11.018;2022-09-09T07:17:16;6.95;;;2.92;;
31674;SDS011;18276;45.520;11.018;2022-09-09T07:19:43;10.88;;;3.63;;
31674;SDS011;18276;45.520;11.018;2022-09-09T07:22:10;9.80;;;3.70;;
31674;SDS011;18276;45.520;11.018;2022-09-09T07:24:38;5.57;;;3.10;;
31674;SDS011;18276;45.520;11.018;2022-09-09T07:27:05;11.82;;;4.22;;
31674;SDS011;18276;45.520;11.018;2022-09-09T07:29:34;11.27;;;4.03;;
31674;SDS011;18276;45.520;11.018;2022-09-09T07:32:02;10.13;;;3.58;;
31674;SDS011;18276;45.520;11.018;2022-09-09T07:34:34;7.17;;;3.40;;
31674;SDS011;18276;45.520;11.018;2022-09-09T07:37:01;7.88;;;3.58;;
31674;SDS011;18276;45.520;11.018;2022-09-09T07:39:30;9.95;;;3.50;;
31674;SDS011;18276;45.520;11.018;2022-09-09T07:41:57;8.23;;;3.42;;
31674;SDS011;18276;45.520;11.018;2022-09-09T07:44:25;10.85;;;3.38;;
31674;SDS011;18276;45.520;11.018;2022-09-09T07:47:00;3.88;;;2.78;;
31674;SDS011;18276;45.520;11.018;2022-09-09T07:49:33;9.20;;;2.85;;
31674;SDS011;18276;45.520;11.018;2022-09-09T07:52:03;4.18;;;2.80;;
31674;SDS011;18276;45.520;11.018;2022-09-09T07:54:31;6.13;;;3.00;;
31674;SDS011;18276;45.520;11.018;2022-09-09T07:57:00;5.40;;;2.83;;
31674;SDS011;18276;45.520;11.018;2022-09-09T07:59:29;7.47;;;3.20;;
31674;SDS011;18276;45.520;11.018;2022-09-09T08:01:57;5.50;;;2.67;;
31674;SDS011;18276;45.520;11.018;2022-09-09T08:04:28;5.70;;;3.08;;
31674;SDS011;18276;45.520;11.018;2022-09-09T08:06:57;4.40;;;2.45;;
31674;SDS011;18276;45.520;11.018;2022-09-09T08:09:27;11.00;;;3.40;;
31674;SDS011;18276;45.520;11.018;2022-09-09T08:12:19;5.70;;;2.80;;
31674;SDS011;18276;45.520;11.018;2022-09-09T08:14:47;6.65;;;2.40;;
31674;SDS011;18276;45.520;11.018;2022-09-09T08:17:15;8.82;;;3.10;;
31674;SDS011;18276;45.520;11.018;2022-09-09T08:19:42;18.75;;;4.88;;
31674;SDS011;18276;45.520;11.018;2022-09-09T08:22:16;23.40;;;5.97;;
31674;SDS011;18276;45.520;11.018;2022-09-09T08:24:43;6.95;;;3.33;;
31674;SDS011;18276;45.520;11.018;2022-09-09T08:27:11;9.40;;;3.10;;
31674;SDS011;18276;45.520;11.018;2022-09-09T08:29:39;5.35;;;2.60;;
31674;SDS011;18276;45.520;11.018;2022-09-09T08:32:06;7.65;;;2.80;;
31674;SDS011;18276;45.520;11.018;2022-09-09T08:34:35;6.57;;;2.90;;
31674;SDS011;18276;45.520;11.018;2022-09-09T08:37:11;7.88;;;2.88;;
31674;SDS011;18276;45.520;11.018;2022-09-09T08:39:39;6.53;;;2.80;;
31674;SDS011;18276;45.520;11.018;2022-09-09T08:42:16;6.05;;;2.60;;
31674;SDS011;18276;45.520;11.018;2022-09-09T08:50:36;6.32;;;2.65;;
31674;SDS011;18276;45.520;11.018;2022-09-09T08:53:21;4.97;;;2.72;;
31674;SDS011;18276;45.520;11.018;2022-09-09T08:55:53;8.00;;;2.92;;
31674;SDS011;18276;45.520;11.018;2022-09-09T08:58:52;6.45;;;2.95;;
31674;SDS011;18276;45.520;11.018;2022-09-09T09:01:43;8.43;;;3.17;;
31674;SDS011;18276;45.520;11.018;2022-09-09T09:12:44;7.22;;;3.33;;
31674;SDS011;18276;45.520;11.018;2022-09-09T09:15:17;5.50;;;3.00;;
31674;SDS011;18276;45.520;11.018;2022-09-09T09:17:56;14.30;;;3.83;;
31674;SDS011;18276;45.520;11.018;2022-09-09T09:21:08;5.50;;;2.67;;
31674;SDS011;18276;45.520;11.018;2022-09-09T09:23:42;6.45;;;2.95;;
31674;SDS011;18276;45.520;11.018;2022-09-09T09:26:17;3.75;;;2.47;;
31674;SDS011;18276;45.520;11.018;2022-09-09T09:28:46;5.32;;;2.83;;
31674;SDS011;18276;45.520;11.018;2022-09-09T09:31:15;6.80;;;2.90;;
31674;SDS011;18276;45.520;11.018;2022-09-09T09:33:47;5.88;;;2.60;;
31674;SDS011;18276;45.520;11.018;2022-09-09T09:36:19;6.60;;;3.35;;
31674;SDS011;18276;45.520;11.018;2022-09-09T09:38:54;8.10;;;3.13;;
31674;SDS011;18276;45.520;11.018;2022-09-09T09:41:44;6.03;;;2.90;;
31674;SDS011;18276;45.520;11.018;2022-09-09T09:44:46;5.28;;;3.22;;
31674;SDS011;18276;45.520;11.018;2022-09-09T09:47:13;9.40;;;3.22;;
31674;SDS011;18276;45.520;11.018;2022-09-09T09:50:01;9.38;;;3.60;;
31674;SDS011;18276;45.520;11.018;2022-09-09T09:52:35;6.03;;;3.20;;
31674;SDS011;18276;45.520;11.018;2022-09-09T09:55:11;8.25;;;3.30;;
31674;SDS011;18276;45.520;11.018;2022-09-09T09:57:43;8.23;;;3.65;;
31674;SDS011;18276;45.520;11.018;2022-09-09T10:00:18;7.75;;;3.25;;
31674;SDS011;18276;45.520;11.018;2022-09-09T10:02:55;12.35;;;3.00;;
31674;SDS011;18276;45.520;11.018;2022-09-09T10:05:27;10.10;;;3.08;;
31674;SDS011;18276;45.520;11.018;2022-09-09T10:08:10;5.78;;;2.40;;
31674;SDS011;18276;45.520;11.018;2022-09-09T10:15:56;3.97;;;2.50;;
31674;SDS011;18276;45.520;11.018;2022-09-09T10:24:22;8.63;;;2.50;;
31674;SDS011;18276;45.520;11.018;2022-09-09T10:30:17;7.28;;;2.30;;
31674;SDS011;18276;45.520;11.018;2022-09-09T10:39:14;8.48;;;1.90;;
31674;SDS011;18276;45.520;11.018;2022-09-09T10:42:06;4.95;;;1.95;;
31674;SDS011;18276;45.520;11.018;2022-09-09T10:53:21;7.10;;;2.00;;
31674;SDS011;18276;45.520;11.018;2022-09-09T10:56:02;5.72;;;2.30;;
31674;SDS011;18276;45.520;11.018;2022-09-09T11:01:25;7.00;;;2.25;;
31674;SDS011;18276;45.520;11.018;2022-09-09T11:04:05;8.88;;;2.40;;
31674;SDS011;18276;45.520;11.018;2022-09-09T11:06:40;5.45;;;1.90;;
31674;SDS011;18276;45.520;11.018;2022-09-09T11:09:14;8.43;;;2.55;;
31674;SDS011;18276;45.520;11.018;2022-09-09T11:11:46;10.38;;;2.30;;
31674;SDS011;18276;45.520;11.018;2022-09-09T11:14:29;6.32;;;2.00;;
31674;SDS011;18276;45.520;11.018;2022-09-09T11:17:22;8.25;;;2.50;;
31674;SDS011;18276;45.520;11.018;2022-09-09T11:20:00;5.38;;;2.33;;
31674;SDS011;18276;45.520;11.018;2022-09-09T11:25:01;3.90;;;1.77;;
31674;SDS011;18276;45.520;11.018;2022-09-09T11:27:49;4.93;;;2.28;;
31674;SDS011;18276;45.520;11.018;2022-09-09T11:33:26;14.85;;;2.42;;
31674;SDS011;18276;45.520;11.018;2022-09-09T11:41:42;9.70;;;2.55;;
31674;SDS011;18276;45.520;11.018;2022-09-09T11:44:17;5.03;;;2.00;;
31674;SDS011;18276;45.520;11.018;2022-09-09T11:46:50;12.30;;;2.22;;
31674;SDS011;18276;45.520;11.018;2022-09-09T11:49:28;6.55;;;1.83;;
31674;SDS011;18276;45.520;11.018;2022-09-09T11:51:55;6.72;;;2.00;;
31674;SDS011;18276;45.520;11.018;2022-09-09T11:54:29;10.85;;;2.30;;
31674;SDS011;18276;45.520;11.018;2022-09-09T11:56:58;6.63;;;2.10;;
31674;SDS011;18276;45.520;11.018;2022-09-09T12:01:56;5.65;;;1.92;;
31674;SDS011;18276;45.520;11.018;2022-09-09T12:06:58;5.65;;;1.85;;
31674;SDS011;18276;45.520;11.018;2022-09-09T12:17:52;3.90;;;1.90;;
31674;SDS011;18276;45.520;11.018;2022-09-09T12:34:27;5.05;;;1.70;;
31674;SDS011;18276;45.520;11.018;2022-09-09T12:37:50;5.05;;;1.58;;
31674;SDS011;18276;45.520;11.018;2022-09-09T12:40:00;2.95;;;1.80;;
31674;SDS011;18276;45.520;11.018;2022-09-09T12:42:48;6.88;;;1.52;;
31674;SDS011;18276;45.520;11.018;2022-09-09T12:50:27;3.05;;;1.70;;
31674;SDS011;18276;45.520;11.018;2022-09-09T12:52:57;5.45;;;1.55;;
31674;SDS011;18276;45.520;11.018;2022-09-09T12:55:33;3.75;;;1.33;;
31674;SDS011;18276;45.520;11.018;2022-09-09T12:58:03;6.00;;;1.70;;
31674;SDS011;18276;45.520;11.018;2022-09-09T13:00:33;5.20;;;1.50;;
31674;SDS011;18276;45.520;11.018;2022-09-09T13:03:01;4.88;;;1.52;;
31674;SDS011;18276;45.520;11.018;2022-09-09T13:05:41;3.65;;;1.83;;
31674;SDS011;18276;45.520;11.018;2022-09-09T13:08:10;9.32;;;1.70;;
31674;SDS011;18276;45.520;11.018;2022-09-09T13:13:20;4.07;;;1.83;;
31674;SDS011;18276;45.520;11.018;2022-09-09T13:15:53;3.50;;;1.58;;
31674;SDS011;18276;45.520;11.018;2022-09-09T13:18:23;4.75;;;1.70;;
31674;SDS011;18276;45.520;11.018;2022-09-09T13:20:54;3.42;;;1.42;;
31674;SDS011;18276;45.520;11.018;2022-09-09T13:23:26;7.80;;;1.33;;
31674;SDS011;18276;45.520;11.018;2022-09-09T13:25:56;5.57;;;1.38;;
31674;SDS011;18276;45.520;11.018;2022-09-09T13:28:28;6.03;;;1.02;;
31674;SDS011;18276;45.520;11.018;2022-09-09T13:31:03;5.43;;;1.37;;
31674;SDS011;18276;45.520;11.018;2022-09-09T13:33:34;2.95;;;1.23;;
31674;SDS011;18276;45.520;11.018;2022-09-09T13:36:04;2.13;;;1.23;;
31674;SDS011;18276;45.520;11.018;2022-09-09T13:38:37;3.20;;;1.40;;
31674;SDS011;18276;45.520;11.018;2022-09-09T13:41:32;1.90;;;1.30;;
31674;SDS011;18276;45.520;11.018;2022-09-09T13:44:03;1.83;;;1.08;;
31674;SDS011;18276;45.520;11.018;2022-09-09T13:46:33;4.90;;;1.35;;
31674;SDS011;18276;45.520;11.018;2022-09-09T13:51:46;2.65;;;1.38;;
31674;SDS011;18276;45.520;11.018;2022-09-09T13:54:15;3.33;;;1.60;;
31674;SDS011;18276;45.520;11.018;2022-09-09T13:56:44;3.00;;;1.58;;
31674;SDS011;18276;45.520;11.018;2022-09-09T13:59:13;6.53;;;1.98;;
31674;SDS011;18276;45.520;11.018;2022-09-09T14:01:42;4.78;;;1.73;;
31674;SDS011;18276;45.520;11.018;2022-09-09T14:04:09;3.33;;;1.30;;
31674;SDS011;18276;45.520;11.018;2022-09-09T14:06:37;2.95;;;1.40;;
31674;SDS011;18276;45.520;11.018;2022-09-09T14:09:06;4.93;;;1.48;;
31674;SDS011;18276;45.520;11.018;2022-09-09T14:11:34;3.05;;;1.45;;
31674;SDS011;18276;45.520;11.018;2022-09-09T14:14:01;4.70;;;1.60;;
31674;SDS011;18276;45.520;11.018;2022-09-09T14:16:28;7.00;;;1.40;;
31674;SDS011;18276;45.520;11.018;2022-09-09T14:18:55;5.30;;;1.65;;
31674;SDS011;18276;45.520;11.018;2022-09-09T14:21:23;3.88;;;1.30;;
31674;SDS011;18276;45.520;11.018;2022-09-09T14:23:50;4.05;;;1.67;;
31674;SDS011;18276;45.520;11.018;2022-09-09T14:26:20;4.60;;;1.70;;
31674;SDS011;18276;45.520;11.018;2022-09-09T14:28:47;3.63;;;1.45;;
31674;SDS011;18276;45.520;11.018;2022-09-09T14:31:23;4.43;;;1.55;;
31674;SDS011;18276;45.520;11.018;2022-09-09T14:33:51;1.52;;;1.20;;
31674;SDS011;18276;45.520;11.018;2022-09-09T14:36:18;4.07;;;1.70;;
31674;SDS011;18276;45.520;11.018;2022-09-09T14:38:46;3.50;;;1.60;;
31674;SDS011;18276;45.520;11.018;2022-09-09T14:41:14;3.95;;;1.52;;
31674;SDS011;18276;45.520;11.018;2022-09-09T14:43:43;6.05;;;1.70;;
31674;SDS011;18276;45.520;11.018;2022-09-09T14:46:12;3.33;;;2.05;;
31674;SDS011;18276;45.520;11.018;2022-09-09T14:48:40;5.65;;;1.88;;
31674;SDS011;18276;45.520;11.018;2022-09-09T14:51:08;5.97;;;1.98;;
31674;SDS011;18276;45.520;11.018;2022-09-09T14:53:36;2.22;;;1.67;;
31674;SDS011;18276;45.520;11.018;2022-09-09T14:56:05;5.43;;;1.88;;
31674;SDS011;18276;45.520;11.018;2022-09-09T14:58:37;2.90;;;1.77;;
31674;SDS011;18276;45.520;11.018;2022-09-09T15:01:04;4.80;;;2.25;;
31674;SDS011;18276;45.520;11.018;2022-09-09T15:03:33;3.22;;;1.75;;
31674;SDS011;18276;45.520;11.018;2022-09-09T15:06:11;4.47;;;1.95;;
31674;SDS011;18276;45.520;11.018;2022-09-09T15:08:40;8.68;;;2.20;;
31674;SDS011;18276;45.520;11.018;2022-09-09T15:11:10;3.03;;;1.85;;
31674;SDS011;18276;45.520;11.018;2022-09-09T15:13:38;4.68;;;2.05;;
31674;SDS011;18276;45.520;11.018;2022-09-09T15:16:13;4.93;;;1.90;;
31674;SDS011;18276;45.520;11.018;2022-09-09T15:18:43;6.63;;;1.70;;
31674;SDS011;18276;45.520;11.018;2022-09-09T15:21:12;6.32;;;2.15;;
31674;SDS011;18276;45.520;11.018;2022-09-09T15:23:45;2.88;;;1.80;;
31674;SDS011;18276;45.520;11.018;2022-09-09T15:26:14;4.07;;;2.00;;
31674;SDS011;18276;45.520;11.018;2022-09-09T15:28:42;3.97;;;1.95;;
31674;SDS011;18276;45.520;11.018;2022-09-09T15:31:11;3.00;;;1.95;;
31674;SDS011;18276;45.520;11.018;2022-09-09T15:38:44;7.28;;;2.35;;
31674;SDS011;18276;45.520;11.018;2022-09-09T15:41:12;7.53;;;2.30;;
31674;SDS011;18276;45.520;11.018;2022-09-09T15:43:47;6.10;;;3.72;;
31674;SDS011;18276;45.520;11.018;2022-09-09T15:48:43;5.35;;;3.08;;
31674;SDS011;18276;45.520;11.018;2022-09-09T15:51:14;6.75;;;3.42;;
31674;SDS011;18276;45.520;11.018;2022-09-09T15:54:01;7.13;;;2.60;;
31674;SDS011;18276;45.520;11.018;2022-09-09T15:56:29;6.00;;;2.30;;
31674;SDS011;18276;45.520;11.018;2022-09-09T15:58:57;4.40;;;2.30;;
31674;SDS011;18276;45.520;11.018;2022-09-09T16:01:26;3.50;;;1.95;;
31674;SDS011;18276;45.520;11.018;2022-09-09T16:03:53;4.32;;;1.80;;
31674;SDS011;18276;45.520;11.018;2022-09-09T16:06:21;4.03;;;2.15;;
31674;SDS011;18276;45.520;11.018;2022-09-09T16:08:50;3.83;;;1.73;;
31674;SDS011;18276;45.520;11.018;2022-09-09T16:11:23;4.32;;;1.98;;
31674;SDS011;18276;45.520;11.018;2022-09-09T16:13:55;4.30;;;1.70;;
31674;SDS011;18276;45.520;11.018;2022-09-09T16:16:23;3.88;;;2.10;;
31674;SDS011;18276;45.520;11.018;2022-09-09T16:18:52;4.20;;;2.38;;
31674;SDS011;18276;45.520;11.018;2022-09-09T16:21:37;4.82;;;1.75;;
31674;SDS011;18276;45.520;11.018;2022-09-09T16:24:07;4.15;;;2.00;;
31674;SDS011;18276;45.520;11.018;2022-09-09T16:26:35;4.97;;;1.80;;
31674;SDS011;18276;45.520;11.018;2022-09-09T16:29:04;5.28;;;1.75;;
31674;SDS011;18276;45.520;11.018;2022-09-09T16:31:32;3.55;;;1.88;;
31674;SDS011;18276;45.520;11.018;2022-09-09T16:33:59;3.08;;;1.73;;
31674;SDS011;18276;45.520;11.018;2022-09-09T16:36:30;6.82;;;1.95;;
31674;SDS011;18276;45.520;11.018;2022-09-09T16:38:58;2.85;;;1.50;;
31674;SDS011;18276;45.520;11.018;2022-09-09T16:41:28;2.72;;;1.33;;
31674;SDS011;18276;45.520;11.018;2022-09-09T16:43:56;2.13;;;1.50;;
31674;SDS011;18276;45.520;11.018;2022-09-09T16:46:26;1.67;;;1.55;;
31674;SDS011;18276;45.520;11.018;2022-09-09T16:48:59;3.50;;;1.83;;
31674;SDS011;18276;45.520;11.018;2022-09-09T16:51:28;4.25;;;1.70;;
31674;SDS011;18276;45.520;11.018;2022-09-09T16:53:58;2.00;;;1.35;;
31674;SDS011;18276;45.520;11.018;2022-09-09T16:56:27;7.47;;;1.60;;
31674;SDS011;18276;45.520;11.018;2022-09-09T16:58:57;2.03;;;1.50;;
31674;SDS011;18276;45.520;11.018;2022-09-09T17:01:30;3.22;;;1.67;;
31674;SDS011;18276;45.520;11.018;2022-09-09T17:04:00;3.28;;;1.85;;
31674;SDS011;18276;45.520;11.018;2022-09-09T17:06:29;3.42;;;2.28;;
31674;SDS011;18276;45.520;11.018;2022-09-09T17:08:58;5.55;;;1.63;;
31674;SDS011;18276;45.520;11.018;2022-09-09T17:11:27;3.67;;;1.80;;
31674;SDS011;18276;45.520;11.018;2022-09-09T17:13:55;2.97;;;2.38;;
31674;SDS011;18276;45.520;11.018;2022-09-09T17:16:27;4.93;;;2.55;;
31674;SDS011;18276;45.520;11.018;2022-09-09T17:18:56;8.30;;;3.10;;
31674;SDS011;18276;45.520;11.018;2022-09-09T17:21:25;5.57;;;2.17;;
31674;SDS011;18276;45.520;11.018;2022-09-09T17:23:53;9.65;;;2.90;;
31674;SDS011;18276;45.520;11.018;2022-09-09T17:26:23;5.90;;;2.28;;
31674;SDS011;18276;45.520;11.018;2022-09-09T17:28:53;9.93;;;3.47;;
31674;SDS011;18276;45.520;11.018;2022-09-09T17:31:25;16.05;;;4.15;;
31674;SDS011;18276;45.520;11.018;2022-09-09T17:33:54;8.55;;;2.70;;
31674;SDS011;18276;45.520;11.018;2022-09-09T17:36:29;8.25;;;2.40;;
31674;SDS011;18276;45.520;11.018;2022-09-09T17:38:57;9.23;;;2.60;;
31674;SDS011;18276;45.520;11.018;2022-09-09T17:41:27;12.98;;;3.08;;
31674;SDS011;18276;45.520;11.018;2022-09-09T17:43:58;8.75;;;3.15;;
31674;SDS011;18276;45.520;11.018;2022-09-09T17:46:28;8.38;;;3.10;;